sensor_id;sensor_type;location;lat;lon;timestamp;P1;durP1;ratioP1;P2;durP2;ratioP2
32200;SDS011;18701;45.588;5.288;2023-08-20T00:00:57;7.32;;;1.85;;
32200;SDS011;18701;45.588;5.288;2023-08-20T00:03:23;10.77;;;2.25;;
32200;SDS011;18701;45.588;5.288;2023-08-20T00:05:49;10.10;;;2.17;;
32200;SDS011;18701;45.588;5.288;2023-08-20T00:08:15;8.93;;;2.08;;
32200;SDS011;18701;45.588;5.288;2023-08-20T00:10:41;8.50;;;2.17;;
32200;SDS011;18701;45.588;5.288;2023-08-20T00:13:06;12.70;;;1.98;;
32200;SDS011;18701;45.588;5.288;2023-08-20T00:15:32;11.60;;;2.38;;
32200;SDS011;18701;45.588;5.288;2023-08-20T00:17:58;4.97;;;1.42;;
32200;SDS011;18701;45.588;5.288;2023-08-20T00:20:24;16.52;;;2.58;;
32200;SDS011;18701;45.588;5.288;2023-08-20T00:22:50;8.23;;;1.65;;
32200;SDS011;18701;45.588;5.288;2023-08-20T00:25:16;6.35;;;1.88;;
32200;SDS011;18701;45.588;5.288;2023-08-20T00:27:43;14.77;;;2.28;;
32200;SDS011;18701;45.588;5.288;2023-08-20T00:30:09;5.57;;;1.77;;
32200;SDS011;18701;45.588;5.288;2023-08-20T00:32:35;16.08;;;2.53;;
32200;SDS011;18701;45.588;5.288;2023-08-20T00:35:02;10.75;;;1.85;;
32200;SDS011;18701;45.588;5.288;2023-08-20T00:37:28;4.57;;;1.83;;
32200;SDS011;18701;45.588;5.288;2023-08-20T00:39:54;6.30;;;2.20;;
32200;SDS011;18701;45.588;5.288;2023-08-20T00:42:20;13.15;;;3.38;;
32200;SDS011;18701;45.588;5.288;2023-08-20T00:44:46;10.65;;;2.45;;
32200;SDS011;18701;45.588;5.288;2023-08-20T00:47:12;5.40;;;1.50;;
32200;SDS011;18701;45.588;5.288;2023-08-20T00:49:39;7.38;;;2.17;;
32200;SDS011;18701;45.588;5.288;2023-08-20T00:52:06;8.27;;;2.13;;
32200;SDS011;18701;45.588;5.288;2023-08-20T00:54:34;8.35;;;2.40;;
32200;SDS011;18701;45.588;5.288;2023-08-20T00:57:01;7.45;;;2.35;;
32200;SDS011;18701;45.588;5.288;2023-08-20T00:59:27;3.83;;;1.98;;
32200;SDS011;18701;45.588;5.288;2023-08-20T01:01:54;9.02;;;2.17;;
32200;SDS011;18701;45.588;5.288;2023-08-20T01:04:20;8.50;;;2.50;;
32200;SDS011;18701;45.588;5.288;2023-08-20T01:09:23;9.70;;;1.80;;
32200;SDS011;18701;45.588;5.288;2023-08-20T01:12:12;11.25;;;2.40;;
32200;SDS011;18701;45.588;5.288;2023-08-20T01:14:39;15.40;;;2.17;;
32200;SDS011;18701;45.588;5.288;2023-08-20T01:17:05;7.22;;;2.00;;
32200;SDS011;18701;45.588;5.288;2023-08-20T01:19:30;10.95;;;2.20;;
32200;SDS011;18701;45.588;5.288;2023-08-20T01:24:45;10.25;;;2.40;;
32200;SDS011;18701;45.588;5.288;2023-08-20T01:27:27;5.45;;;1.95;;
32200;SDS011;18701;45.588;5.288;2023-08-20T01:30:13;7.38;;;1.95;;
32200;SDS011;18701;45.588;5.288;2023-08-20T01:32:40;5.90;;;2.30;;
32200;SDS011;18701;45.588;5.288;2023-08-20T01:35:17;9.70;;;1.95;;
32200;SDS011;18701;45.588;5.288;2023-08-20T01:37:43;9.63;;;1.77;;
32200;SDS011;18701;45.588;5.288;2023-08-20T01:40:09;8.02;;;1.77;;
32200;SDS011;18701;45.588;5.288;2023-08-20T01:42:38;6.85;;;1.95;;
32200;SDS011;18701;45.588;5.288;2023-08-20T01:45:05;7.70;;;2.05;;
32200;SDS011;18701;45.588;5.288;2023-08-20T01:47:32;8.05;;;2.35;;
32200;SDS011;18701;45.588;5.288;2023-08-20T01:49:58;7.97;;;2.05;;
32200;SDS011;18701;45.588;5.288;2023-08-20T01:52:24;11.40;;;2.08;;
32200;SDS011;18701;45.588;5.288;2023-08-20T01:54:50;10.75;;;3.17;;
32200;SDS011;18701;45.588;5.288;2023-08-20T01:57:15;7.55;;;2.03;;
32200;SDS011;18701;45.588;5.288;2023-08-20T01:59:41;6.90;;;2.38;;
32200;SDS011;18701;45.588;5.288;2023-08-20T02:02:07;6.53;;;2.35;;
32200;SDS011;18701;45.588;5.288;2023-08-20T02:04:33;8.82;;;1.88;;
32200;SDS011;18701;45.588;5.288;2023-08-20T02:06:59;11.55;;;2.53;;
32200;SDS011;18701;45.588;5.288;2023-08-20T02:09:24;10.45;;;2.33;;
32200;SDS011;18701;45.588;5.288;2023-08-20T02:11:50;9.00;;;2.47;;
32200;SDS011;18701;45.588;5.288;2023-08-20T02:14:16;11.35;;;2.15;;
32200;SDS011;18701;45.588;5.288;2023-08-20T02:16:42;4.57;;;1.83;;
32200;SDS011;18701;45.588;5.288;2023-08-20T02:19:08;6.00;;;1.60;;
32200;SDS011;18701;45.588;5.288;2023-08-20T02:21:34;10.32;;;2.55;;
32200;SDS011;18701;45.588;5.288;2023-08-20T02:23:59;11.38;;;2.50;;
32200;SDS011;18701;45.588;5.288;2023-08-20T02:26:25;7.03;;;2.40;;
32200;SDS011;18701;45.588;5.288;2023-08-20T02:28:51;8.50;;;2.30;;
32200;SDS011;18701;45.588;5.288;2023-08-20T02:31:16;6.90;;;2.30;;
32200;SDS011;18701;45.588;5.288;2023-08-20T02:33:42;4.70;;;2.38;;
32200;SDS011;18701;45.588;5.288;2023-08-20T02:36:08;12.48;;;2.47;;
32200;SDS011;18701;45.588;5.288;2023-08-20T02:38:33;8.07;;;2.33;;
32200;SDS011;18701;45.588;5.288;2023-08-20T02:40:59;14.63;;;2.70;;
32200;SDS011;18701;45.588;5.288;2023-08-20T02:43:27;5.15;;;2.13;;
32200;SDS011;18701;45.588;5.288;2023-08-20T02:45:53;11.00;;;2.40;;
32200;SDS011;18701;45.588;5.288;2023-08-20T02:48:19;6.05;;;1.88;;
32200;SDS011;18701;45.588;5.288;2023-08-20T02:50:45;5.03;;;2.17;;
32200;SDS011;18701;45.588;5.288;2023-08-20T02:53:10;13.10;;;2.78;;
32200;SDS011;18701;45.588;5.288;2023-08-20T02:55:36;10.13;;;2.85;;
32200;SDS011;18701;45.588;5.288;2023-08-20T02:58:02;6.90;;;1.92;;
32200;SDS011;18701;45.588;5.288;2023-08-20T03:00:34;12.23;;;2.38;;
32200;SDS011;18701;45.588;5.288;2023-08-20T03:03:00;6.05;;;2.10;;
32200;SDS011;18701;45.588;5.288;2023-08-20T03:05:33;5.60;;;2.20;;
32200;SDS011;18701;45.588;5.288;2023-08-20T03:07:59;8.77;;;2.20;;
32200;SDS011;18701;45.588;5.288;2023-08-20T03:10:32;12.07;;;2.53;;
32200;SDS011;18701;45.588;5.288;2023-08-20T03:13:02;6.75;;;2.50;;
32200;SDS011;18701;45.588;5.288;2023-08-20T03:15:28;8.07;;;2.15;;
32200;SDS011;18701;45.588;5.288;2023-08-20T03:17:54;11.25;;;2.13;;
32200;SDS011;18701;45.588;5.288;2023-08-20T03:20:20;10.68;;;2.58;;
32200;SDS011;18701;45.588;5.288;2023-08-20T03:22:46;7.57;;;2.55;;
32200;SDS011;18701;45.588;5.288;2023-08-20T03:25:11;7.40;;;3.38;;
32200;SDS011;18701;45.588;5.288;2023-08-20T03:27:37;8.20;;;2.22;;
32200;SDS011;18701;45.588;5.288;2023-08-20T03:30:03;5.60;;;2.58;;
32200;SDS011;18701;45.588;5.288;2023-08-20T03:32:29;4.88;;;2.40;;
32200;SDS011;18701;45.588;5.288;2023-08-20T03:34:56;8.57;;;2.50;;
32200;SDS011;18701;45.588;5.288;2023-08-20T03:37:24;5.03;;;2.05;;
32200;SDS011;18701;45.588;5.288;2023-08-20T03:39:50;8.23;;;2.30;;
32200;SDS011;18701;45.588;5.288;2023-08-20T03:42:15;7.65;;;2.83;;
32200;SDS011;18701;45.588;5.288;2023-08-20T03:44:41;6.57;;;2.88;;
32200;SDS011;18701;45.588;5.288;2023-08-20T03:47:06;5.95;;;2.35;;
32200;SDS011;18701;45.588;5.288;2023-08-20T03:49:32;4.65;;;2.40;;
32200;SDS011;18701;45.588;5.288;2023-08-20T03:51:57;8.35;;;2.85;;
32200;SDS011;18701;45.588;5.288;2023-08-20T03:54:23;5.57;;;2.80;;
32200;SDS011;18701;45.588;5.288;2023-08-20T03:56:49;5.57;;;2.35;;
32200;SDS011;18701;45.588;5.288;2023-08-20T03:59:14;7.25;;;2.75;;
32200;SDS011;18701;45.588;5.288;2023-08-20T04:01:40;6.45;;;2.20;;
32200;SDS011;18701;45.588;5.288;2023-08-20T04:04:06;8.43;;;2.65;;
32200;SDS011;18701;45.588;5.288;2023-08-20T04:06:32;12.23;;;2.92;;
32200;SDS011;18701;45.588;5.288;2023-08-20T04:08:57;4.57;;;2.58;;
32200;SDS011;18701;45.588;5.288;2023-08-20T04:11:23;8.23;;;2.45;;
32200;SDS011;18701;45.588;5.288;2023-08-20T04:13:49;4.82;;;2.05;;
32200;SDS011;18701;45.588;5.288;2023-08-20T04:16:14;4.43;;;2.70;;
32200;SDS011;18701;45.588;5.288;2023-08-20T04:18:40;7.28;;;2.22;;
32200;SDS011;18701;45.588;5.288;2023-08-20T04:21:06;5.97;;;2.13;;
32200;SDS011;18701;45.588;5.288;2023-08-20T04:23:34;11.00;;;2.53;;
32200;SDS011;18701;45.588;5.288;2023-08-20T04:26:00;7.93;;;2.53;;
32200;SDS011;18701;45.588;5.288;2023-08-20T04:28:28;6.05;;;2.22;;
32200;SDS011;18701;45.588;5.288;2023-08-20T04:30:54;6.05;;;2.50;;
32200;SDS011;18701;45.588;5.288;2023-08-20T04:33:21;5.28;;;2.15;;
32200;SDS011;18701;45.588;5.288;2023-08-20T04:35:48;8.88;;;2.75;;
32200;SDS011;18701;45.588;5.288;2023-08-20T04:38:15;5.43;;;2.78;;
32200;SDS011;18701;45.588;5.288;2023-08-20T04:40:41;12.90;;;2.70;;
32200;SDS011;18701;45.588;5.288;2023-08-20T04:43:07;6.57;;;2.58;;
32200;SDS011;18701;45.588;5.288;2023-08-20T04:45:32;7.50;;;3.08;;
32200;SDS011;18701;45.588;5.288;2023-08-20T04:47:58;7.75;;;3.20;;
32200;SDS011;18701;45.588;5.288;2023-08-20T04:50:24;7.03;;;2.83;;
32200;SDS011;18701;45.588;5.288;2023-08-20T04:52:50;6.63;;;2.58;;
32200;SDS011;18701;45.588;5.288;2023-08-20T04:55:15;5.68;;;2.80;;
32200;SDS011;18701;45.588;5.288;2023-08-20T04:57:41;5.30;;;2.25;;
32200;SDS011;18701;45.588;5.288;2023-08-20T05:00:07;6.30;;;2.60;;
32200;SDS011;18701;45.588;5.288;2023-08-20T05:02:34;7.57;;;2.60;;
32200;SDS011;18701;45.588;5.288;2023-08-20T05:05:00;6.10;;;2.65;;
32200;SDS011;18701;45.588;5.288;2023-08-20T05:07:26;6.18;;;2.83;;
32200;SDS011;18701;45.588;5.288;2023-08-20T05:09:52;7.13;;;2.80;;
32200;SDS011;18701;45.588;5.288;2023-08-20T05:12:17;12.23;;;3.22;;
32200;SDS011;18701;45.588;5.288;2023-08-20T05:14:43;9.88;;;3.55;;
32200;SDS011;18701;45.588;5.288;2023-08-20T05:17:09;7.18;;;2.90;;
32200;SDS011;18701;45.588;5.288;2023-08-20T05:19:34;6.70;;;2.72;;
32200;SDS011;18701;45.588;5.288;2023-08-20T05:22:03;9.60;;;3.03;;
32200;SDS011;18701;45.588;5.288;2023-08-20T05:24:29;4.00;;;2.30;;
32200;SDS011;18701;45.588;5.288;2023-08-20T05:27:04;7.15;;;2.83;;
32200;SDS011;18701;45.588;5.288;2023-08-20T05:29:34;4.63;;;2.65;;
32200;SDS011;18701;45.588;5.288;2023-08-20T05:32:03;7.68;;;2.40;;
32200;SDS011;18701;45.588;5.288;2023-08-20T05:34:29;9.93;;;3.13;;
32200;SDS011;18701;45.588;5.288;2023-08-20T05:36:55;12.70;;;2.88;;
32200;SDS011;18701;45.588;5.288;2023-08-20T05:39:20;6.45;;;2.97;;
32200;SDS011;18701;45.588;5.288;2023-08-20T05:41:46;5.53;;;2.75;;
32200;SDS011;18701;45.588;5.288;2023-08-20T05:44:11;8.60;;;2.83;;
32200;SDS011;18701;45.588;5.288;2023-08-20T05:46:37;9.27;;;3.25;;
32200;SDS011;18701;45.588;5.288;2023-08-20T05:49:03;8.13;;;2.90;;
32200;SDS011;18701;45.588;5.288;2023-08-20T05:51:28;7.78;;;2.80;;
32200;SDS011;18701;45.588;5.288;2023-08-20T05:53:54;6.40;;;3.35;;
32200;SDS011;18701;45.588;5.288;2023-08-20T05:56:19;9.32;;;2.70;;
32200;SDS011;18701;45.588;5.288;2023-08-20T05:58:45;12.02;;;3.20;;
32200;SDS011;18701;45.588;5.288;2023-08-20T06:01:11;9.10;;;2.90;;
32200;SDS011;18701;45.588;5.288;2023-08-20T06:03:36;11.07;;;3.08;;
32200;SDS011;18701;45.588;5.288;2023-08-20T06:06:02;7.57;;;3.28;;
32200;SDS011;18701;45.588;5.288;2023-08-20T06:08:28;6.22;;;2.28;;
32200;SDS011;18701;45.588;5.288;2023-08-20T06:10:53;6.03;;;2.90;;
32200;SDS011;18701;45.588;5.288;2023-08-20T06:13:19;8.30;;;3.20;;
32200;SDS011;18701;45.588;5.288;2023-08-20T06:15:45;9.23;;;3.08;;
32200;SDS011;18701;45.588;5.288;2023-08-20T06:18:10;10.60;;;3.55;;
32200;SDS011;18701;45.588;5.288;2023-08-20T06:20:36;17.38;;;3.15;;
32200;SDS011;18701;45.588;5.288;2023-08-20T06:23:01;5.05;;;3.92;;
32200;SDS011;18701;45.588;5.288;2023-08-20T06:25:27;12.38;;;2.92;;
32200;SDS011;18701;45.588;5.288;2023-08-20T06:27:53;6.55;;;2.92;;
32200;SDS011;18701;45.588;5.288;2023-08-20T06:30:18;5.25;;;2.83;;
32200;SDS011;18701;45.588;5.288;2023-08-20T06:32:44;10.27;;;3.28;;
32200;SDS011;18701;45.588;5.288;2023-08-20T06:35:10;12.63;;;3.22;;
32200;SDS011;18701;45.588;5.288;2023-08-20T06:37:36;8.23;;;3.22;;
32200;SDS011;18701;45.588;5.288;2023-08-20T06:40:03;7.55;;;3.30;;
32200;SDS011;18701;45.588;5.288;2023-08-20T06:42:29;9.55;;;3.00;;
32200;SDS011;18701;45.588;5.288;2023-08-20T06:44:55;11.40;;;3.72;;
32200;SDS011;18701;45.588;5.288;2023-08-20T06:47:20;6.80;;;2.97;;
32200;SDS011;18701;45.588;5.288;2023-08-20T06:49:46;14.02;;;3.08;;
32200;SDS011;18701;45.588;5.288;2023-08-20T06:52:11;8.52;;;3.35;;
32200;SDS011;18701;45.588;5.288;2023-08-20T06:54:37;7.97;;;3.03;;
32200;SDS011;18701;45.588;5.288;2023-08-20T06:57:03;7.88;;;3.35;;
32200;SDS011;18701;45.588;5.288;2023-08-20T06:59:29;6.35;;;3.15;;
32200;SDS011;18701;45.588;5.288;2023-08-20T07:01:54;9.35;;;4.40;;
32200;SDS011;18701;45.588;5.288;2023-08-20T07:04:20;6.60;;;4.13;;
32200;SDS011;18701;45.588;5.288;2023-08-20T07:06:45;9.60;;;3.80;;
32200;SDS011;18701;45.588;5.288;2023-08-20T07:09:11;9.15;;;4.20;;
32200;SDS011;18701;45.588;5.288;2023-08-20T07:11:36;9.52;;;3.85;;
32200;SDS011;18701;45.588;5.288;2023-08-20T07:14:02;6.72;;;3.88;;
32200;SDS011;18701;45.588;5.288;2023-08-20T07:16:28;8.73;;;3.95;;
32200;SDS011;18701;45.588;5.288;2023-08-20T07:18:53;11.18;;;3.97;;
32200;SDS011;18701;45.588;5.288;2023-08-20T07:21:19;12.20;;;5.32;;
32200;SDS011;18701;45.588;5.288;2023-08-20T07:23:45;9.23;;;3.30;;
32200;SDS011;18701;45.588;5.288;2023-08-20T07:26:10;14.02;;;3.95;;
32200;SDS011;18701;45.588;5.288;2023-08-20T07:28:37;10.38;;;3.67;;
32200;SDS011;18701;45.588;5.288;2023-08-20T07:31:21;6.75;;;3.40;;
32200;SDS011;18701;45.588;5.288;2023-08-20T07:33:48;9.05;;;4.13;;
32200;SDS011;18701;45.588;5.288;2023-08-20T07:36:14;10.32;;;4.03;;
32200;SDS011;18701;45.588;5.288;2023-08-20T07:38:41;6.57;;;3.45;;
32200;SDS011;18701;45.588;5.288;2023-08-20T07:41:11;8.05;;;3.60;;
32200;SDS011;18701;45.588;5.288;2023-08-20T07:43:37;9.27;;;4.00;;
32200;SDS011;18701;45.588;5.288;2023-08-20T07:46:03;11.07;;;4.28;;
32200;SDS011;18701;45.588;5.288;2023-08-20T07:48:29;9.13;;;3.80;;
32200;SDS011;18701;45.588;5.288;2023-08-20T07:50:55;13.38;;;4.30;;
32200;SDS011;18701;45.588;5.288;2023-08-20T07:53:20;8.02;;;4.20;;
32200;SDS011;18701;45.588;5.288;2023-08-20T07:55:46;9.38;;;3.85;;
32200;SDS011;18701;45.588;5.288;2023-08-20T07:58:12;10.43;;;4.40;;
32200;SDS011;18701;45.588;5.288;2023-08-20T08:00:37;7.80;;;3.20;;
32200;SDS011;18701;45.588;5.288;2023-08-20T08:03:03;10.20;;;3.58;;
32200;SDS011;18701;45.588;5.288;2023-08-20T08:05:29;9.43;;;4.00;;
32200;SDS011;18701;45.588;5.288;2023-08-20T08:07:54;8.13;;;3.65;;
32200;SDS011;18701;45.588;5.288;2023-08-20T08:10:20;7.60;;;3.88;;
32200;SDS011;18701;45.588;5.288;2023-08-20T08:12:46;6.50;;;3.22;;
32200;SDS011;18701;45.588;5.288;2023-08-20T08:15:11;7.03;;;3.45;;
32200;SDS011;18701;45.588;5.288;2023-08-20T08:17:38;10.95;;;3.65;;
32200;SDS011;18701;45.588;5.288;2023-08-20T08:20:04;7.70;;;4.22;;
32200;SDS011;18701;45.588;5.288;2023-08-20T08:22:30;7.05;;;3.88;;
32200;SDS011;18701;45.588;5.288;2023-08-20T08:24:58;7.35;;;4.13;;
32200;SDS011;18701;45.588;5.288;2023-08-20T08:27:24;6.53;;;3.33;;
32200;SDS011;18701;45.588;5.288;2023-08-20T08:29:50;8.65;;;3.70;;
32200;SDS011;18701;45.588;5.288;2023-08-20T08:32:15;9.38;;;3.90;;
32200;SDS011;18701;45.588;5.288;2023-08-20T08:34:41;9.38;;;3.63;;
32200;SDS011;18701;45.588;5.288;2023-08-20T08:37:07;8.63;;;3.70;;
32200;SDS011;18701;45.588;5.288;2023-08-20T08:39:33;7.45;;;3.70;;
32200;SDS011;18701;45.588;5.288;2023-08-20T08:42:02;8.65;;;3.75;;
32200;SDS011;18701;45.588;5.288;2023-08-20T08:44:30;7.18;;;3.60;;
32200;SDS011;18701;45.588;5.288;2023-08-20T08:47:01;7.47;;;3.90;;
32200;SDS011;18701;45.588;5.288;2023-08-20T08:49:28;6.43;;;3.53;;
32200;SDS011;18701;45.588;5.288;2023-08-20T08:51:57;5.72;;;3.13;;
32200;SDS011;18701;45.588;5.288;2023-08-20T08:54:23;7.15;;;3.60;;
32200;SDS011;18701;45.588;5.288;2023-08-20T08:56:49;7.15;;;3.58;;
32200;SDS011;18701;45.588;5.288;2023-08-20T08:59:15;10.02;;;4.28;;
32200;SDS011;18701;45.588;5.288;2023-08-20T09:01:41;12.32;;;3.55;;
32200;SDS011;18701;45.588;5.288;2023-08-20T09:04:07;14.70;;;3.17;;
32200;SDS011;18701;45.588;5.288;2023-08-20T09:06:48;8.30;;;3.60;;
32200;SDS011;18701;45.588;5.288;2023-08-20T09:09:16;10.63;;;3.40;;
32200;SDS011;18701;45.588;5.288;2023-08-20T09:11:42;10.60;;;3.85;;
32200;SDS011;18701;45.588;5.288;2023-08-20T09:14:08;6.00;;;3.58;;
32200;SDS011;18701;45.588;5.288;2023-08-20T09:16:45;9.98;;;3.53;;
32200;SDS011;18701;45.588;5.288;2023-08-20T09:19:11;7.15;;;3.25;;
32200;SDS011;18701;45.588;5.288;2023-08-20T09:21:36;7.65;;;3.17;;
32200;SDS011;18701;45.588;5.288;2023-08-20T09:24:02;6.75;;;3.55;;
32200;SDS011;18701;45.588;5.288;2023-08-20T09:26:28;9.68;;;3.05;;
32200;SDS011;18701;45.588;5.288;2023-08-20T09:28:54;9.02;;;3.10;;
32200;SDS011;18701;45.588;5.288;2023-08-20T09:31:36;9.15;;;3.08;;
32200;SDS011;18701;45.588;5.288;2023-08-20T09:34:03;13.15;;;3.83;;
32200;SDS011;18701;45.588;5.288;2023-08-20T09:36:33;11.98;;;2.72;;
32200;SDS011;18701;45.588;5.288;2023-08-20T09:39:00;10.02;;;3.08;;
32200;SDS011;18701;45.588;5.288;2023-08-20T09:41:27;5.35;;;2.78;;
32200;SDS011;18701;45.588;5.288;2023-08-20T09:43:57;5.43;;;3.28;;
32200;SDS011;18701;45.588;5.288;2023-08-20T09:46:27;7.60;;;2.65;;
32200;SDS011;18701;45.588;5.288;2023-08-20T09:48:58;16.40;;;3.90;;
32200;SDS011;18701;45.588;5.288;2023-08-20T09:51:25;8.82;;;3.15;;
32200;SDS011;18701;45.588;5.288;2023-08-20T09:54:14;4.25;;;2.28;;
32200;SDS011;18701;45.588;5.288;2023-08-20T09:56:51;7.72;;;2.83;;
32200;SDS011;18701;45.588;5.288;2023-08-20T09:59:23;8.75;;;2.55;;
32200;SDS011;18701;45.588;5.288;2023-08-20T10:01:49;11.77;;;3.00;;
32200;SDS011;18701;45.588;5.288;2023-08-20T10:04:16;8.10;;;2.75;;
32200;SDS011;18701;45.588;5.288;2023-08-20T10:06:43;11.82;;;2.92;;
32200;SDS011;18701;45.588;5.288;2023-08-20T10:09:09;7.00;;;3.08;;
32200;SDS011;18701;45.588;5.288;2023-08-20T10:11:35;6.13;;;2.83;;
32200;SDS011;18701;45.588;5.288;2023-08-20T10:14:02;11.55;;;2.40;;
32200;SDS011;18701;45.588;5.288;2023-08-20T10:16:28;12.57;;;2.85;;
32200;SDS011;18701;45.588;5.288;2023-08-20T10:18:53;7.97;;;2.78;;
32200;SDS011;18701;45.588;5.288;2023-08-20T10:21:24;7.03;;;2.63;;
32200;SDS011;18701;45.588;5.288;2023-08-20T10:23:50;6.75;;;2.58;;
32200;SDS011;18701;45.588;5.288;2023-08-20T10:26:15;6.50;;;2.08;;
32200;SDS011;18701;45.588;5.288;2023-08-20T10:28:46;4.05;;;2.90;;
32200;SDS011;18701;45.588;5.288;2023-08-20T10:31:12;6.50;;;2.80;;
32200;SDS011;18701;45.588;5.288;2023-08-20T10:36:16;5.57;;;2.30;;
32200;SDS011;18701;45.588;5.288;2023-08-20T10:38:47;10.57;;;3.00;;
32200;SDS011;18701;45.588;5.288;2023-08-20T10:41:12;6.03;;;2.92;;
32200;SDS011;18701;45.588;5.288;2023-08-20T10:43:40;8.10;;;2.38;;
32200;SDS011;18701;45.588;5.288;2023-08-20T10:46:17;6.85;;;2.90;;
32200;SDS011;18701;45.588;5.288;2023-08-20T10:51:17;7.05;;;2.67;;
32200;SDS011;18701;45.588;5.288;2023-08-20T10:59:08;3.95;;;2.55;;
32200;SDS011;18701;45.588;5.288;2023-08-20T11:01:37;9.52;;;2.80;;
32200;SDS011;18701;45.588;5.288;2023-08-20T11:04:04;5.03;;;2.45;;
32200;SDS011;18701;45.588;5.288;2023-08-20T11:06:32;8.07;;;3.00;;
32200;SDS011;18701;45.588;5.288;2023-08-20T11:08:58;7.20;;;3.05;;
32200;SDS011;18701;45.588;5.288;2023-08-20T11:11:24;8.30;;;2.60;;
32200;SDS011;18701;45.588;5.288;2023-08-20T11:13:50;9.85;;;2.42;;
32200;SDS011;18701;45.588;5.288;2023-08-20T11:16:16;6.95;;;2.60;;
32200;SDS011;18701;45.588;5.288;2023-08-20T11:18:42;4.18;;;2.30;;
32200;SDS011;18701;45.588;5.288;2023-08-20T11:21:08;6.50;;;2.30;;
32200;SDS011;18701;45.588;5.288;2023-08-20T11:23:34;8.23;;;2.50;;
32200;SDS011;18701;45.588;5.288;2023-08-20T11:26:00;11.05;;;2.40;;
32200;SDS011;18701;45.588;5.288;2023-08-20T11:28:27;5.40;;;2.30;;
32200;SDS011;18701;45.588;5.288;2023-08-20T11:30:54;5.07;;;2.45;;
32200;SDS011;18701;45.588;5.288;2023-08-20T11:33:21;5.47;;;2.15;;
32200;SDS011;18701;45.588;5.288;2023-08-20T11:35:47;8.10;;;2.30;;
32200;SDS011;18701;45.588;5.288;2023-08-20T11:38:13;15.45;;;2.60;;
32200;SDS011;18701;45.588;5.288;2023-08-20T11:40:39;8.15;;;2.38;;
32200;SDS011;18701;45.588;5.288;2023-08-20T11:43:05;9.13;;;2.65;;
32200;SDS011;18701;45.588;5.288;2023-08-20T11:45:43;7.40;;;2.15;;
32200;SDS011;18701;45.588;5.288;2023-08-20T11:48:09;9.02;;;2.30;;
32200;SDS011;18701;45.588;5.288;2023-08-20T11:50:35;8.98;;;2.15;;
32200;SDS011;18701;45.588;5.288;2023-08-20T11:53:02;5.07;;;2.63;;
32200;SDS011;18701;45.588;5.288;2023-08-20T11:55:29;7.50;;;2.03;;
32200;SDS011;18701;45.588;5.288;2023-08-20T11:57:55;4.93;;;1.90;;
32200;SDS011;18701;45.588;5.288;2023-08-20T12:00:24;8.68;;;2.42;;
32200;SDS011;18701;45.588;5.288;2023-08-20T12:02:55;12.02;;;2.35;;
32200;SDS011;18701;45.588;5.288;2023-08-20T12:05:30;5.57;;;2.47;;
32200;SDS011;18701;45.588;5.288;2023-08-20T12:07:56;12.25;;;2.92;;
32200;SDS011;18701;45.588;5.288;2023-08-20T12:10:24;12.15;;;1.90;;
32200;SDS011;18701;45.588;5.288;2023-08-20T12:12:50;4.40;;;2.35;;
32200;SDS011;18701;45.588;5.288;2023-08-20T12:15:17;8.15;;;2.50;;
32200;SDS011;18701;45.588;5.288;2023-08-20T12:17:47;7.57;;;2.08;;
32200;SDS011;18701;45.588;5.288;2023-08-20T12:20:20;9.63;;;2.55;;
32200;SDS011;18701;45.588;5.288;2023-08-20T12:22:46;9.75;;;2.70;;
32200;SDS011;18701;45.588;5.288;2023-08-20T12:25:12;5.97;;;2.03;;
32200;SDS011;18701;45.588;5.288;2023-08-20T12:27:38;5.13;;;2.05;;
32200;SDS011;18701;45.588;5.288;2023-08-20T12:30:03;12.80;;;1.80;;
32200;SDS011;18701;45.588;5.288;2023-08-20T12:32:29;4.35;;;2.15;;
32200;SDS011;18701;45.588;5.288;2023-08-20T12:34:55;5.85;;;1.65;;
32200;SDS011;18701;45.588;5.288;2023-08-20T12:37:21;7.80;;;1.58;;
32200;SDS011;18701;45.588;5.288;2023-08-20T12:39:46;6.97;;;2.10;;
32200;SDS011;18701;45.588;5.288;2023-08-20T12:42:12;8.18;;;2.33;;
32200;SDS011;18701;45.588;5.288;2023-08-20T12:44:38;7.38;;;2.10;;
32200;SDS011;18701;45.588;5.288;2023-08-20T12:47:03;7.90;;;2.15;;
32200;SDS011;18701;45.588;5.288;2023-08-20T12:49:29;8.23;;;2.03;;
32200;SDS011;18701;45.588;5.288;2023-08-20T12:51:55;9.88;;;2.17;;
32200;SDS011;18701;45.588;5.288;2023-08-20T12:54:20;10.75;;;1.60;;
32200;SDS011;18701;45.588;5.288;2023-08-20T12:56:46;8.48;;;1.83;;
32200;SDS011;18701;45.588;5.288;2023-08-20T12:59:12;6.55;;;1.70;;
32200;SDS011;18701;45.588;5.288;2023-08-20T13:01:37;7.85;;;2.28;;
32200;SDS011;18701;45.588;5.288;2023-08-20T13:04:03;7.53;;;1.58;;
32200;SDS011;18701;45.588;5.288;2023-08-20T13:06:29;4.72;;;2.08;;
32200;SDS011;18701;45.588;5.288;2023-08-20T13:08:55;10.65;;;1.88;;
32200;SDS011;18701;45.588;5.288;2023-08-20T13:11:20;6.78;;;1.92;;
32200;SDS011;18701;45.588;5.288;2023-08-20T13:13:49;13.45;;;2.13;;
32200;SDS011;18701;45.588;5.288;2023-08-20T13:16:15;6.03;;;2.22;;
32200;SDS011;18701;45.588;5.288;2023-08-20T13:18:43;3.63;;;1.58;;
32200;SDS011;18701;45.588;5.288;2023-08-20T13:21:09;6.75;;;2.28;;
32200;SDS011;18701;45.588;5.288;2023-08-20T13:23:34;8.00;;;2.00;;
32200;SDS011;18701;45.588;5.288;2023-08-20T13:26:00;9.65;;;1.95;;
32200;SDS011;18701;45.588;5.288;2023-08-20T13:28:29;7.13;;;2.13;;
32200;SDS011;18701;45.588;5.288;2023-08-20T13:30:54;14.80;;;2.45;;
32200;SDS011;18701;45.588;5.288;2023-08-20T13:33:20;14.70;;;2.10;;
32200;SDS011;18701;45.588;5.288;2023-08-20T13:35:46;7.53;;;2.10;;
32200;SDS011;18701;45.588;5.288;2023-08-20T13:38:11;8.15;;;1.60;;
32200;SDS011;18701;45.588;5.288;2023-08-20T13:40:37;8.18;;;2.17;;
32200;SDS011;18701;45.588;5.288;2023-08-20T13:43:02;8.70;;;2.15;;
32200;SDS011;18701;45.588;5.288;2023-08-20T13:45:28;9.80;;;1.80;;
32200;SDS011;18701;45.588;5.288;2023-08-20T13:47:54;6.95;;;1.65;;
32200;SDS011;18701;45.588;5.288;2023-08-20T13:50:20;6.75;;;1.70;;
32200;SDS011;18701;45.588;5.288;2023-08-20T13:52:46;11.88;;;2.22;;
32200;SDS011;18701;45.588;5.288;2023-08-20T13:55:13;15.65;;;2.30;;
32200;SDS011;18701;45.588;5.288;2023-08-20T13:57:38;10.38;;;2.95;;
32200;SDS011;18701;45.588;5.288;2023-08-20T14:00:05;13.65;;;2.25;;
32200;SDS011;18701;45.588;5.288;2023-08-20T14:02:36;6.10;;;2.05;;
32200;SDS011;18701;45.588;5.288;2023-08-20T14:05:01;8.05;;;2.10;;
32200;SDS011;18701;45.588;5.288;2023-08-20T14:07:29;7.63;;;2.08;;
32200;SDS011;18701;45.588;5.288;2023-08-20T14:09:55;15.10;;;1.83;;
32200;SDS011;18701;45.588;5.288;2023-08-20T14:12:20;9.52;;;1.98;;
32200;SDS011;18701;45.588;5.288;2023-08-20T14:14:46;15.85;;;1.80;;
32200;SDS011;18701;45.588;5.288;2023-08-20T14:17:12;10.50;;;1.83;;
32200;SDS011;18701;45.588;5.288;2023-08-20T14:19:37;8.50;;;1.60;;
32200;SDS011;18701;45.588;5.288;2023-08-20T14:22:03;11.43;;;2.40;;
32200;SDS011;18701;45.588;5.288;2023-08-20T14:24:28;13.38;;;2.20;;
32200;SDS011;18701;45.588;5.288;2023-08-20T14:26:54;11.48;;;2.08;;
32200;SDS011;18701;45.588;5.288;2023-08-20T14:29:20;12.48;;;1.80;;
32200;SDS011;18701;45.588;5.288;2023-08-20T14:31:45;14.55;;;1.98;;
32200;SDS011;18701;45.588;5.288;2023-08-20T14:34:11;12.10;;;1.60;;
32200;SDS011;18701;45.588;5.288;2023-08-20T14:36:37;8.23;;;1.45;;
32200;SDS011;18701;45.588;5.288;2023-08-20T14:39:05;15.32;;;1.60;;
32200;SDS011;18701;45.588;5.288;2023-08-20T14:41:31;13.10;;;2.15;;
32200;SDS011;18701;45.588;5.288;2023-08-20T14:43:56;14.27;;;1.70;;
32200;SDS011;18701;45.588;5.288;2023-08-20T14:46:22;11.73;;;1.80;;
32200;SDS011;18701;45.588;5.288;2023-08-20T14:48:49;12.52;;;1.50;;
32200;SDS011;18701;45.588;5.288;2023-08-20T14:51:14;9.43;;;1.40;;
32200;SDS011;18701;45.588;5.288;2023-08-20T14:53:40;8.73;;;1.73;;
32200;SDS011;18701;45.588;5.288;2023-08-20T14:56:06;7.10;;;1.80;;